Laramie, WY

8:07 PM MDT on July 25, 2016 (GMT -0600)
| | Change Station

Elev -9999 ft 0.00 °N, 0.00 °E | Updated

Partly Cloudy
Partly Cloudy
64 °F
Feels Like 64 °F
N
10
Wind Variable Wind from SSE
Gusts 15 mph

Today
High -- | Low -- °F
--% Chance of Precip.
Yesterday
High -- | Low -- °F
Precip. -- in
Pressure 29.89 in
Visibility 10.0 miles
Clouds Clear
Dew Point 41 °F
Humidity 44%
Rainfall --
Snow Depth Not available.
5:51 AM 8:25 PM
Waning Gibbous, 60% visible
METAR KLAR 260153Z AUTO 31006KT 10SM CLR 26/M03 A3025 RMK AO2 SLP121 T02561028 TSNO
Pressure 29.89 in
Visibility 10.0 miles
Clouds Clear
Dew Point 41 °F
Humidity 44%
Rainfall --
Snow Depth Not available.
5:51 AM 8:25 PM
Waning Gibbous, 60% visible
METAR KLAR 260153Z AUTO 31006KT 10SM CLR 26/M03 A3025 RMK AO2 SLP121 T02561028 TSNO

10-Day Weather Forecast

Almanac

Astronomy

Jul. 25, 2016 Rise Set
Actual Time
Civil Twilight
Nautical Twilight
Astronomical Twilight
Moon
Length of Visible Light
Length of Day
Tomorrow will be .
, % of the Moon is Illuminated

Today's Extremes

State Highs State Lows

Community

WunderPhotos

Upload Photos

1,927,497 photos uploaded!

WunderBlog® & News

Nearby

Air Quality

  Air Quality AQ Index Pollutant
Not available.

Snow Depth

Station Depth Elevation

Earthquake Activity

City Distance Mag. Time & Date
Minimum magnitude displayed is 2.5.

Coastal Water Temperatures

Place Temperature

Stations

Nearby Weather Stations

Station Location Temp. Windchill Dew Point Humidity Wind Precip. Elev Updated Type
                   

Watches & Warnings

There are currently no watches in effect.